Tiempo atmosférico en la estación meteorológica de Vallehermoso, Alto Igualero, Santa Cruz de Tenerife (1475 m.)



Fecha
DESCASC
Temp. máxima en grados centígrados (hora)
DESCASC
Temp. mínima en grados centígrados (hora)
DESCASC
Temp. media en grados centígrados
DESCASC
Racha de viento máxima en m/sg (hora)
DESCASC
Velocidad máxima media en intervalos de 10 minutos(hora)
DESCASC
Precipitaciones diarias en mm
DESCASC
Precipitaciones de 00:00 a 06:00 en mm
DESCASC
Precipitaciones de 06:00 a 12:00 en mm
DESCASC
Precipitaciones de 12:00 a 18:00 en mm
DESCASC
Precipitaciones de 18:00 a 24:00 en mm
DESCASC
10-07-2020 24 (14:20) 18.4 (07:40) 21.2 18.89 (08:00) 14.17 (07:20) 0 0 0 0 0
09-07-2020 28.2 (14:20) 20.6 (23:30) 24.4 16.39 (08:40) 12.22 (08:10) 0 0 0 0 0
08-07-2020 35.2 (13:50) 25.2 (21:30) 30.2 14.17 (21:10) 11.39 (21:10) 0 0 0 0 0
07-07-2020 37 (15:40) 26.2 (03:30) 31.6 8.61 (13:20) 6.67 (01:00) 0 0 0 0 0
06-07-2020 35.1 (13:50) 25.5 (00:00) 30.3 8.06 (23:50) 6.11 (23:40) 0 0 0 0 0
05-07-2020 34.4 (17:10) 18.9 (03:50) 26.7 9.44 (03:50) 7.22 (03:30) 0 0 0 0 0
04-07-2020 28.7 (12:00) 16.9 (06:30) 22.8 11.94 (01:30) 10.28 (01:30) 0 0 0 0 0
03-07-2020 34.1 (15:20) 16.2 (21:20) 25.1 12.78 (21:10) 10.56 (21:30) 0 0 0 0 0
02-07-2020 35.8 (15:00) 21.9 (00:00) 28.8 10 (22:40) 8.61 (23:30) 0 0 0 0 0
01-07-2020 32.6 (16:10) 20.2 (00:00) 26.4 8.06 (23:10) 6.67 (23:10) 0 0 0 0 0
30-06-2020 29.1 (16:10) 10.1 (00:00) 19.6 10 (00:10) 8.33 (01:00) 0 0 0 0 0
29-06-2020 13.7 (15:10) 11 (00:00) 12.3 15.83 (12:30) 12.78 (09:10) 0.8 0.2 0.4 0 0.2
28-06-2020 18.1 (00:50) 11 (00:00) 14.6 17.22 (23:30) 12.5 (23:40) 0 0 0 0 0
27-06-2020 21.8 (12:40) 10.7 (00:00) 16.2 12.5 (21:00) 11.39 (20:50) 0 0 0 0 0
26-06-2020 14.3 (19:00) 8.9 (00:00) 11.6 14.72 (03:10) 11.94 (03:10) 0.4 0.4 0 0 0
25-06-2020 13 (18:00) 9.2 (00:00) 11.1 15.83 (23:30) 12.5 (23:00) 0.2 0.2 0 0 0
24-06-2020 19.7 (11:50) 9.5 (00:00) 14.6 15.83 (23:40) 12.5 (23:40) 0 0 0 0 0
23-06-2020 23.3 (13:00) 11.5 (00:00) 17.4 12.5 (22:50) 11.67 (21:10) 0 0 0 0 0
22-06-2020 26.1 (13:50) 17.9 (00:00) 22 10.28 (22:40) 8.89 (23:59) 0 0 0 0 0
21-06-2020 26.8 (14:50) 16 (00:00) 21.4 11.39 (16:00) 9.72 (03:00) 0 0 0 0 0
20-06-2020 18.5 (19:10) 9.9 (00:00) 14.2 14.17 (01:00) 10.56 (00:50) 0.4 0.2 0.2 0 0
19-06-2020 13.6 (14:50) 8.9 (00:00) 11.3 16.67 (19:10) 13.61 (21:50) 0.2 0.2 0 0 0
18-06-2020 14.9 (15:10) 9.6 (06:50) 12.3 16.39 (09:40) 11.94 (23:00) 0 0 0 0 0
17-06-2020 21 (15:10) 10.8 (00:00) 15.9 21.39 (00:20) 16.11 (00:20) 0.6 0.6 0 0 0
16-06-2020 20.8 (12:00) 14.9 (00:00) 17.8 25.28 (22:20) 18.61 (22:20) 0 0 0 0 0
15-06-2020 20.3 (15:20) 14.2 (00:00) 17.2 23.61 (06:50) 18.89 (06:50) 2.6 2.6 0 0 0
14-06-2020 23.3 (17:10) 13.5 (00:00) 18.4 15.28 (20:00) 11.11 (19:30) 0 0 0 0 0
13-06-2020 20.1 (16:50) 8.4 (00:00) 14.3 7.22 (07:20) 5.56 (05:40) 0 0 0 0 0
12-06-2020 16.9 (17:00) 7.1 (00:00) 12 11.67 (07:40) 9.72 (07:40) 0 0 0 0 0

Gráficas

Temp. máximas Temp. mínimas Temp. medias Precipitaciones Rachas de viento máximas Velocidades máximas media en intervalos de 10 minutos

Datos horarios

Fecha y hora oficial Temperatura (ºC) Velocidad del viento (km/h) Dirección del viento Racha (km/h) Dirección de racha Precipitación (mm) Presión (hPa) Tendencia (hPa) Humedad (%)
2020-07-11 23:00:00 19.3 41 Nordeste 52 Nordeste 0 -- -- 21
2020-07-11 22:00:00 19.3 42 Nordeste 54 Nordeste 0 -- -- 19
2020-07-11 21:00:00 19.4 44 Nordeste 59 Nordeste 0 -- -- 19
2020-07-11 20:00:00 20.8 42 Nordeste 56 Este 0 -- -- 12
2020-07-11 19:00:00 21.1 41 Nordeste 63 Este 0 -- -- 16
2020-07-11 18:00:00 20.7 41 Nordeste 57 Nordeste 0 -- -- 28
2020-07-11 17:00:00 21.3 37 Nordeste 54 Nordeste 0 -- -- 30
2020-07-11 16:00:00 22 34 Nordeste 54 Este 0 -- -- 32
2020-07-11 15:00:00 21.8 39 Este 60 Nordeste 0 -- -- 34
2020-07-11 14:00:00 22.4 37 Nordeste 56 Nordeste 0 -- -- 32
2020-07-11 13:00:00 21.5 41 Nordeste 62 Nordeste 0 -- -- 36
2020-07-11 12:00:00 21.2 45 Este 58 Este 0 -- -- 38
2020-07-11 11:00:00 20.6 41 Nordeste 58 Nordeste 0 -- -- 36
2020-07-11 10:00:00 20.4 41 Nordeste 56 Este 0 -- -- 35
2020-07-11 09:00:00 18.8 44 Nordeste 60 Nordeste 0 -- -- 40
2020-07-11 08:00:00 17.8 46 Nordeste 61 Nordeste 0 -- -- 40
2020-07-11 07:00:00 17.2 46 Nordeste 64 Este 0 -- -- 42
2020-07-11 06:00:00 17.6 42 Nordeste 61 Nordeste 0 -- -- 42
2020-07-11 05:00:00 19 48 Nordeste 65 Nordeste 0 -- -- 29
2020-07-11 04:00:00 19.4 41 Nordeste 57 Nordeste 0 -- -- 26
2020-07-11 03:00:00 19.3 41 Nordeste 54 Nordeste 0 -- -- 27
2020-07-11 02:00:00 19.4 41 Nordeste 54 Nordeste 0 -- -- 25
2020-07-11 01:00:00 19.7 42 Nordeste 56 Nordeste 0 -- -- 25
2020-07-11 00:00:00 20 42 Nordeste 54 Nordeste 0 -- -- 22
2020-07-10 23:00:00 19.6 37 Nordeste 49 Nordeste 0 -- -- 20
2020-07-10 22:00:00 19.2 37 Este 54 Nordeste 0 -- -- 22
2020-07-10 21:00:00 19.6 40 Nordeste 54 Nordeste 0 -- -- 20
2020-07-10 20:00:00 20.6 34 Nordeste 50 Este 0 -- -- 20
2020-07-10 19:00:00 22 35 Nordeste 45 Este 0 -- -- 19
2020-07-10 18:00:00 22.6 35 Este 49 Nordeste 0 -- -- 21
2020-07-10 17:00:00 22.5 35 Este 52 Nordeste 0 -- -- 23
2020-07-10 16:00:00 23.4 32 Nordeste 56 Nordeste 0 -- -- 24
2020-07-10 15:00:00 23.5 31 Este 50 Este 0 -- -- 27
2020-07-10 14:00:00 23.7 37 Este 59 Nordeste 0 -- -- 25
2020-07-10 13:00:00 23 40 Este 58 Nordeste 0 -- -- 27
2020-07-10 12:00:00 22.1 38 Nordeste 60 Nordeste 0 -- -- 26
2020-07-10 11:00:00 21.2 42 Nordeste 63 Nordeste 0 -- -- 28
2020-07-10 10:00:00 20.9 46 Nordeste 62 Nordeste 0 -- -- 28
2020-07-10 09:00:00 19.9 49 Nordeste 62 Nordeste 0 -- -- 28
2020-07-10 08:00:00 18.8 50 Nordeste 68 Nordeste 0 -- -- 29
2020-07-10 07:00:00 19.2 48 Nordeste 62 Nordeste 0 -- -- 21
2020-07-10 06:00:00 19.9 47 Nordeste 63 Nordeste 0 -- -- 6
2020-07-10 05:00:00 19.5 47 Nordeste 62 Nordeste 0 -- -- 18
2020-07-10 04:00:00 19.3 45 Nordeste 58 Norte 0 -- -- 30
2020-07-10 03:00:00 19.9 42 Nordeste 62 Nordeste 0 -- -- 20
2020-07-10 02:00:00 20.5 45 Nordeste 65 Nordeste 0 -- -- 22
2020-07-10 01:00:00 20 42 Nordeste 59 Nordeste 0 -- -- 31
2020-07-10 00:00:00 20.6 41 Nordeste 56 Nordeste 0 -- -- 30
2020-07-09 23:00:00 21.3 41 Nordeste 55 Nordeste 0 -- -- 23
2020-07-09 22:00:00 21.3 36 Nordeste 47 Nordeste 0 -- -- 19
2020-07-09 21:00:00 21.9 34 Nordeste 49 Nordeste 0 -- -- 17
2020-07-09 20:00:00 23.6 33 Nordeste 55 Nordeste 0 -- -- 13
2020-07-09 19:00:00 25.3 33 Nordeste 55 Nordeste 0 -- -- 10
2020-07-09 18:00:00 25.8 32 Nordeste 49 Nordeste 0 -- -- 11
2020-07-09 17:00:00 27.1 32 Nordeste 47 Nordeste 0 -- -- 11
2020-07-09 16:00:00 27.4 30 Nordeste 48 Nordeste 0 -- -- 11
2020-07-09 15:00:00 28.1 26 Nordeste 44 Este 0 -- -- 10
2020-07-09 14:00:00 27.7 28 Nordeste 44 Nordeste 0 -- -- 10
2020-07-09 13:00:00 26.8 29 Nordeste 43 Nordeste 0 -- -- 12
2020-07-09 12:00:00 25.9 31 Nordeste 44 Nordeste 0 -- -- 10
2020-07-09 11:00:00 26.1 31 Nordeste 51 Este 0 -- -- 10
2020-07-09 10:00:00 26 39 Nordeste 56 Nordeste 0 -- -- 12
2020-07-09 09:00:00 25.4 42 Nordeste 59 Este 0 -- -- 12
2020-07-09 08:00:00 24.7 43 Nordeste 55 Nordeste 0 -- -- 9
2020-07-09 07:00:00 24.5 41 Nordeste 52 Nordeste 0 -- -- 9
2020-07-09 06:00:00 24.6 38 Nordeste 50 Nordeste 0 -- -- 9
2020-07-09 05:00:00 24.7 36 Nordeste 45 Nordeste 0 -- -- 9
2020-07-09 04:00:00 24.9 37 Nordeste 47 Nordeste 0 -- -- 11
2020-07-09 03:00:00 24.9 39 Nordeste 48 Nordeste 0 -- -- 11
2020-07-09 02:00:00 25.3 38 Nordeste 48 Nordeste 0 -- -- 12
2020-07-09 01:00:00 25.2 41 Nordeste 51 Nordeste 0 -- -- 12
2020-07-09 00:00:00 25.3 38 Nordeste 47 Nordeste 0 -- -- 12
2020-07-08 23:00:00 25.3 40 Nordeste 49 Nordeste 0 -- -- 12
2020-07-08 22:00:00 25.4 39 Nordeste 51 Nordeste 0 -- -- 13
2020-07-08 21:00:00 25.4 40 Nordeste 51 Nordeste 0 -- -- 15
2020-07-08 20:00:00 25.7 37 Nordeste 47 Nordeste 0 -- -- 15
2020-07-08 19:00:00 26.4 31 Nordeste 40 Nordeste 0 -- -- 16
2020-07-08 18:00:00 27.5 27 Nordeste 34 Nordeste 0 -- -- 16
2020-07-08 17:00:00 30.9 13 Nordeste 19 Nordeste 0 -- -- 17
2020-07-08 16:00:00 34.9 6 Oeste 15 Oeste 0 -- -- 17
2020-07-08 15:00:00 34.6 11 Este 21 Nordeste 0 -- -- 17
2020-07-08 14:00:00 35.1 7 Noroeste 19 Oeste 0 -- -- 20
2020-07-08 13:00:00 33.9 11 Oeste 21 Este 0 -- -- 17
2020-07-08 12:00:00 33.9 9 Nordeste 21 Nordeste 0 -- -- 17
2020-07-08 11:00:00 33.2 11 Este 24 Este 0 -- -- 16
2020-07-08 10:00:00 31.6 17 Este 27 Este 0 -- -- 17
2020-07-08 09:00:00 29.6 19 Este 29 Este 0 -- -- 17
2020-07-08 08:00:00 27.5 22 Nordeste 27 Nordeste 0 -- -- 18
2020-07-08 07:00:00 26.5 27 Nordeste 29 Nordeste 0 -- -- 18
2020-07-08 06:00:00 26.2 22 Nordeste 25 Nordeste 0 -- -- 19
2020-07-08 05:00:00 27.5 22 Nordeste 24 Nordeste 0 -- -- 19
2020-07-08 04:00:00 28.3 22 Nordeste 25 Nordeste 0 -- -- 18
2020-07-08 03:00:00 28.4 22 Nordeste 25 Nordeste 0 -- -- 18
2020-07-08 02:00:00 25.7 22 Nordeste 27 Nordeste 0 -- -- 21
2020-07-08 01:00:00 26.8 23 Nordeste 25 Nordeste 0 -- -- 20
2020-07-08 00:00:00 28 22 Nordeste 24 Nordeste 0 -- -- 18
2020-07-07 23:00:00 28.5 22 Nordeste 24 Nordeste 0 -- -- 18
2020-07-07 22:00:00 28.4 21 Nordeste 23 Nordeste 0 -- -- 18
2020-07-07 21:00:00 29 17 Norte 19 Norte 0 -- -- 18
2020-07-07 20:00:00 32.2 13 Noroeste 22 Noroeste 0 -- -- 20
2020-07-07 19:00:00 34.7 13 Oeste 22 Oeste 0 -- -- 18
2020-07-07 18:00:00 35.3 11 Oeste 19 Oeste 0 -- -- 23
2020-07-07 17:00:00 36.2 8 Oeste 19 Oeste 0 -- -- 20
2020-07-07 16:00:00 36.8 9 Oeste 21 Oeste 0 -- -- 21
2020-07-07 15:00:00 35.9 8 Noroeste 22 Noroeste 0 -- -- 17
2020-07-07 14:00:00 35.8 11 Oeste 31 Noroeste 0 -- -- 17
2020-07-07 13:00:00 35.3 7 Sudoeste 20 Oeste 0 -- -- 15
2020-07-07 12:00:00 33.6 10 Oeste 23 Oeste 0 -- -- 17
2020-07-07 11:00:00 32.3 10 Oeste 22 Oeste 0 -- -- 17
2020-07-07 10:00:00 30.4 10 Oeste 13 Noroeste 0 -- -- 17
2020-07-07 09:00:00 28.9 7 Sur 11 Sur 0 -- -- 19
2020-07-07 08:00:00 28.1 6 Sudoeste 13 Sudoeste 0 -- -- 18
2020-07-07 07:00:00 27.9 6 Oeste 10 Este 0 -- -- 18
2020-07-07 06:00:00 26.8 3 Sudeste 15 Nordeste 0 -- -- 19
2020-07-07 05:00:00 26.4 10 Nordeste 19 Nordeste 0 -- -- 20
2020-07-07 04:00:00 26.7 12 Nordeste 25 Nordeste 0 -- -- 19
2020-07-07 03:00:00 26.4 21 Nordeste 26 Nordeste 0 -- -- 20
2020-07-07 02:00:00 26.8 17 Nordeste 26 Nordeste 0 -- -- 20
2020-07-07 01:00:00 26.4 24 Nordeste 27 Nordeste 0 -- -- 21
2020-07-07 00:00:00 26.9 21 Nordeste 29 Nordeste 0 -- -- 19
2020-07-06 23:00:00 27.1 21 Nordeste 22 Nordeste 0 -- -- 19
2020-07-06 22:00:00 27.3 18 Nordeste 21 Nordeste 0 -- -- 19
2020-07-06 21:00:00 27.5 17 Nordeste 19 Nordeste 0 -- -- 19
2020-07-06 20:00:00 28.4 14 Nordeste 17 Nordeste 0 -- -- 18
2020-07-06 19:00:00 31.1 8 Norte 16 Nordeste 0 -- -- 17
2020-07-06 18:00:00 32 9 Norte 20 Noroeste 0 -- -- 18
2020-07-06 17:00:00 32.4 14 Norte 23 Norte 0 -- -- 17
2020-07-06 16:00:00 34.4 6 Norte 17 Noroeste 0 -- -- 20
2020-07-06 15:00:00 34.8 7 Oeste 16 Oeste 0 -- -- 17
2020-07-06 14:00:00 35 8 Noroeste 21 Noroeste 0 -- -- 18
2020-07-06 13:00:00 31.6 12 Noroeste 20 Oeste 0 -- -- 18
2020-07-06 12:00:00 32.8 6 Oeste 19 Oeste 0 -- -- 17
2020-07-06 11:00:00 30.3 8 Norte 15 Noroeste 0 -- -- 20
2020-07-06 10:00:00 29.1 5 Norte 9 Noroeste 0 -- -- 19
2020-07-06 09:00:00 27.4 8 Sudeste 17 Sudeste 0 -- -- 20
2020-07-06 08:00:00 26 11 Sudeste 15 Sudeste 0 -- -- 19
2020-07-06 07:00:00 26.1 13 Nordeste 17 Nordeste 0 -- -- 19
2020-07-06 06:00:00 25.9 12 Nordeste 17 Nordeste 0 -- -- 18
2020-07-06 05:00:00 26 10 Nordeste 14 Nordeste 0 -- -- 18
2020-07-06 04:00:00 26.3 10 Norte 14 Norte 0 -- -- 18
2020-07-06 03:00:00 25.9 8 Norte 13 Norte 0 -- -- 18
2020-07-06 02:00:00 26.4 10 Norte 18 Nordeste 0 -- -- 18
2020-07-06 01:00:00 26.1 13 Nordeste 17 Nordeste 0 -- -- 18
2020-07-06 00:00:00 26.8 10 Nordeste 11 Nordeste 0 -- -- 18
2020-07-05 23:00:00 26.8 8 Nordeste 17 Nordeste 0 -- -- 18
2020-07-05 22:00:00 26.2 14 Nordeste 15 Nordeste 0 -- -- 18
2020-07-05 21:00:00 26.5 12 Nordeste 17 Norte 0 -- -- 18
2020-07-05 20:00:00 28.2 12 Nordeste 18 Noroeste 0 -- -- 17
2020-07-05 19:00:00 33.7 11 Noroeste 17 Noroeste 0 -- -- 17
2020-07-05 18:00:00 33.4 4 Norte 18 Oeste 0 -- -- 23
2020-07-05 17:00:00 34 8 Oeste 20 Oeste 0 -- -- 20
2020-07-05 16:00:00 33.9 6 Noroeste 23 Noroeste 0 -- -- 22
2020-07-05 15:00:00 33.9 13 Oeste 22 Noroeste 0 -- -- 22
2020-07-05 14:00:00 33.3 7 Sudeste 18 Sudoeste 0 -- -- 14
2020-07-05 13:00:00 32.6 6 Noroeste 23 Noroeste 0 -- -- 14
2020-07-05 12:00:00 31.7 6 Sudeste 18 Sur 0 -- -- 13
2020-07-05 11:00:00 29.7 5 Noroeste 15 Nordeste 0 -- -- 15
2020-07-05 10:00:00 29.5 3 Sudoeste 6 Sur 0 -- -- 11
2020-07-05 09:00:00 27.6 2 Sudeste 8 Sudeste 0 -- -- 10
2020-07-05 08:00:00 24.8 5 Sur 15 Sudeste 0 -- -- 8
2020-07-05 07:00:00 22.5 6 Este 26 Norte 0 -- -- 10
2020-07-05 06:00:00 19.5 13 Norte 24 Nordeste 0 -- -- 24
2020-07-05 05:00:00 20.6 15 Nordeste 31 Nordeste 0 -- -- 15
2020-07-05 04:00:00 19.3 25 Nordeste 34 Nordeste 0 -- -- 19
2020-07-05 03:00:00 20.8 15 Nordeste 23 Norte 0 -- -- 13
2020-07-05 02:00:00 21.2 15 Norte 25 Nordeste 0 -- -- 13
2020-07-05 01:00:00 20.2 21 Nordeste 28 Nordeste 0 -- -- 17
2020-07-05 00:00:00 22.4 18 Norte 25 Norte 0 -- -- 10
2020-07-04 23:00:00 23.1 23 Norte 28 Norte 0 -- -- 10
2020-07-04 22:00:00 23.3 23 Norte 27 Norte 0 -- -- 10
2020-07-04 21:00:00 22.8 22 Norte 26 Norte 0 -- -- 12
2020-07-04 20:00:00 22.5 21 Norte 26 Nordeste 0 -- -- 15
2020-07-04 19:00:00 22.6 17 Nordeste 21 Norte 0 -- -- 19
2020-07-04 18:00:00 23.5 15 Norte 22 Norte 0 -- -- 22
2020-07-04 17:00:00 24.3 18 Norte 28 Norte 0 -- -- 18
2020-07-04 16:00:00 28 20 Noroeste 28 Noroeste 0 -- -- 15
2020-07-04 15:00:00 27.4 12 Noroeste 27 Norte 0 -- -- 21
2020-07-04 14:00:00 23 17 Norte 28 Norte 0 -- -- 32
2020-07-04 13:00:00 23.1 14 Norte 28 Norte 0 -- -- 30
2020-07-04 12:00:00 28.7 10 Oeste 19 Noroeste 0 -- -- 13
2020-07-04 11:00:00 27 5 Nordeste 14 Nordeste 0 -- -- 22
2020-07-04 10:00:00 24.1 7 Nordeste 29 Nordeste 0 -- -- 22
2020-07-04 09:00:00 19.6 25 Nordeste 39 Norte 0 -- -- 25
2020-07-04 08:00:00 17.9 26 Nordeste 36 Nordeste 0 -- -- 28
2020-07-04 07:00:00 17.6 23 Nordeste 36 Nordeste 0 -- -- 24
2020-07-04 06:00:00 18.1 22 Nordeste 32 Norte 0 -- -- 24
2020-07-04 05:00:00 19.6 22 Nordeste 36 Nordeste 0 -- -- 15
2020-07-04 04:00:00 20.4 17 Nordeste 32 Nordeste 0 -- -- 14
2020-07-04 03:00:00 19.5 24 Nordeste 40 Nordeste 0 -- -- 15
2020-07-04 02:00:00 18.7 35 Nordeste 43 Nordeste 0 -- -- 20
2020-07-04 01:00:00 18.9 33 Nordeste 40 Nordeste 0 -- -- 21
2020-07-04 00:00:00 18.9 33 Nordeste 41 Nordeste 0 -- -- 23
2020-07-03 23:00:00 17.2 35 Nordeste 44 Nordeste 0 -- -- 34
2020-07-03 22:00:00 16.5 38 Nordeste 46 Nordeste 0 -- -- 43
2020-07-03 21:00:00 17.5 35 Nordeste 41 Nordeste 0 -- -- 36
2020-07-03 20:00:00 19.2 27 Nordeste 35 Nordeste 0 -- -- 30
2020-07-03 19:00:00 21.8 23 Norte 28 Norte 0 -- -- 27
2020-07-03 18:00:00 30.8 15 Noroeste 20 Noroeste 0 -- -- 13
2020-07-03 17:00:00 31.9 14 Noroeste 21 Noroeste 0 -- -- 11
2020-07-03 16:00:00 31.7 13 Noroeste 24 Noroeste 0 -- -- 14
2020-07-03 15:00:00 32.6 8 Noroeste 19 Noroeste 0 -- -- 14
2020-07-03 14:00:00 32.5 9 Noroeste 18 Oeste 0 -- -- 17
2020-07-03 13:00:00 32.1 5 Norte 21 Sudoeste 0 -- -- 18
2020-07-03 12:00:00 32.2 6 Nordeste 15 Nordeste 0 -- -- 15
2020-07-03 11:00:00 30.3 8 Nordeste 15 Nordeste 0 -- -- 15
2020-07-03 10:00:00 28 10 Nordeste 14 Nordeste 0 -- -- 12
2020-07-03 09:00:00 26.6 13 Nordeste 17 Nordeste 0 -- -- 11
2020-07-03 08:00:00 25.4 14 Nordeste 21 Nordeste 0 -- -- 9
2020-07-03 07:00:00 24.9 20 Nordeste 24 Nordeste 0 -- -- 8
2020-07-03 06:00:00 24.8 22 Nordeste 28 Nordeste 0 -- -- 8
2020-07-03 05:00:00 24.8 24 Nordeste 27 Nordeste 0 -- -- 8
2020-07-03 04:00:00 25.2 23 Nordeste 29 Nordeste 0 -- -- 8
2020-07-03 03:00:00 24.6 26 Nordeste 31 Nordeste 0 -- -- 8
2020-07-03 02:00:00 22.5 27 Nordeste 39 Norte 0 -- -- 9
2020-07-03 01:00:00 24 33 Nordeste 37 Nordeste 0 -- -- 9
2020-07-03 00:00:00 22.8 31 Nordeste 35 Nordeste 0 -- -- 9
2020-07-02 23:00:00 22.7 29 Nordeste 36 Nordeste 0 -- -- 8
2020-07-02 22:00:00 24.3 30 Nordeste 33 Nordeste 0 -- -- 7
2020-07-02 21:00:00 25 25 Nordeste 30 Nordeste 0 -- -- 9
2020-07-02 20:00:00 27.8 11 Norte 19 Norte 0 -- -- 11
2020-07-02 19:00:00 32.3 12 Oeste 19 Oeste 0 -- -- 20
2020-07-02 18:00:00 33.3 6 Noroeste 21 Noroeste 0 -- -- 23
2020-07-02 17:00:00 34.5 13 Oeste 22 Noroeste 0 -- -- 19
2020-07-02 16:00:00 35.1 13 Oeste 21 Noroeste 0 -- -- 15
2020-07-02 15:00:00 35.8 10 Oeste 19 Sudoeste 0 -- -- 14
2020-07-02 14:00:00 34.9 8 Sudoeste 16 Sudoeste 0 -- -- 14
2020-07-02 13:00:00 32.3 5 Nordeste 17 Este 0 -- -- 15
2020-07-02 12:00:00 30.8 10 Este 18 Este 0 -- -- 14
2020-07-02 11:00:00 29.4 9 Este 19 Este 0 -- -- 13
2020-07-02 10:00:00 28.2 15 Este 23 Este 0 -- -- 10
2020-07-02 09:00:00 26.6 12 Nordeste 14 Nordeste 0 -- -- 9
2020-07-02 08:00:00 26.5 6 Norte 17 Noroeste 0 -- -- 8
2020-07-02 07:00:00 26.6 16 Noroeste 18 Noroeste 0 -- -- 7
2020-07-02 06:00:00 26.2 18 Noroeste 25 Noroeste 0 -- -- 6
2020-07-02 05:00:00 25.8 18 Noroeste 27 Noroeste 0 -- -- 8
2020-07-02 04:00:00 26.4 23 Noroeste 27 Noroeste 0 -- -- 7
2020-07-02 03:00:00 27 24 Noroeste 28 Noroeste 0 -- -- 10
2020-07-02 02:00:00 26.7 22 Noroeste 25 Noroeste 0 -- -- 9
2020-07-02 01:00:00 26.6 19 Noroeste 22 Noroeste 0 -- -- 7
2020-07-02 00:00:00 26.8 20 Noroeste 29 Noroeste 0 -- -- 8
2020-07-01 23:00:00 27.2 23 Noroeste 28 Noroeste 0 -- -- 7
2020-07-01 22:00:00 25.7 17 Noroeste 21 Noroeste 0 -- -- 7
2020-07-01 21:00:00 25.9 17 Noroeste 23 Noroeste 0 -- -- 6
2020-07-01 20:00:00 28.7 14 Oeste 25 Noroeste 0 -- -- 8
2020-07-01 19:00:00 30.2 18 Oeste 24 Oeste 0 -- -- 14
2020-07-01 18:00:00 32.6 12 Oeste 23 Oeste 0 -- -- 12
2020-07-01 17:00:00 32.1 13 Oeste 24 Sudoeste 0 -- -- 14
2020-07-01 16:00:00 32.4 12 Oeste 22 Sudoeste 0 -- -- 13
2020-07-01 15:00:00 32.3 15 Oeste 22 Oeste 0 -- -- 13
2020-07-01 14:00:00 30.9 6 Oeste 20 Sudoeste 0 -- -- 15
2020-07-01 13:00:00 29.5 12 Oeste 26 Oeste 0 -- -- 12
2020-07-01 12:00:00 28 18 Oeste 28 Oeste 0 -- -- 10
2020-07-01 11:00:00 25.9 18 Oeste 24 Oeste 0 -- -- 11
2020-07-01 10:00:00 24.6 18 Oeste 23 Sudoeste 0 -- -- 11
2020-07-01 09:00:00 23.5 18 Sudoeste 22 Sudoeste 0 -- -- 10
2020-07-01 08:00:00 22 18 Sudoeste 22 Sur 0 -- -- 10
2020-07-01 07:00:00 22.2 21 Sudoeste 22 Sudoeste 0 -- -- 10
2020-07-01 06:00:00 21.9 18 Sudoeste 20 Sudoeste 0 -- -- 10
2020-07-01 05:00:00 20.5 12 Sudoeste 20 Sudeste 0 -- -- 12
2020-07-01 04:00:00 20.6 14 Sudeste 19 Sur 0 -- -- 13
2020-07-01 03:00:00 20.9 11 Sur 14 Sudeste 0 -- -- 11
2020-07-01 02:00:00 21 14 Sudeste 18 Sudeste 0 -- -- 14
2020-07-01 01:00:00 20.9 8 Oeste 11 Oeste 0 -- -- 12
2020-07-01 00:00:00 21.3 4 Oeste 6 Sudoeste 0 -- -- 10
2020-06-30 23:00:00 21 3 Sudeste 9 Sur 0 -- -- 13
2020-06-30 22:00:00 20.9 5 Sudeste 9 Sur 0 -- -- 13
2020-06-30 21:00:00 22.2 3 Sur 9 Oeste 0 -- -- 13
2020-06-30 20:00:00 24.1 4 Norte 14 Oeste 0 -- -- 39
2020-06-30 19:00:00 27.1 10 Oeste 17 Oeste 0 -- -- 42
2020-06-30 18:00:00 27.9 8 Oeste 19 Oeste 0 -- -- 28
2020-06-30 17:00:00 28.3 9 Oeste 20 Noroeste 0 -- -- 34
2020-06-30 16:00:00 28.4 10 Oeste 18 Sudoeste 0 -- -- 36
2020-06-30 15:00:00 26.6 9 Oeste 17 Oeste 0 -- -- 46
2020-06-30 14:00:00 26.4 8 Oeste 15 Oeste 0 -- -- 44
2020-06-30 13:00:00 25.7 4 Sudoeste 12 Sudoeste 0 -- -- 25
2020-06-30 12:00:00 24.4 4 Sudoeste 12 Sudoeste 0 -- -- 30
2020-06-30 11:00:00 23.3 3 Oeste 10 Nordeste 0 -- -- 28
2020-06-30 10:00:00 21.2 3 Sur 21 Nordeste 0 -- -- 27
2020-06-30 09:00:00 13.7 17 Nordeste 28 Nordeste 0 -- -- 79
2020-06-30 08:00:00 15.6 9 Nordeste 21 Nordeste 0 -- -- 50
2020-06-30 07:00:00 11.9 9 Nordeste 24 Nordeste 0 -- -- 75
2020-06-30 06:00:00 16 11 Norte 33 Nordeste 0 -- -- 39
2020-06-30 05:00:00 11.2 17 Nordeste 28 Nordeste 0 -- -- 100
2020-06-30 04:00:00 15.3 8 Norte 18 Norte 0 -- -- 52
2020-06-30 03:00:00 12 10 Norte 27 Nordeste 0 -- -- 100
2020-06-30 02:00:00 11 14 Norte 35 Nordeste 0 -- -- 100
2020-06-30 01:00:00 11.4 30 Nordeste 36 Nordeste 0 -- -- 100
2020-06-30 00:00:00 11.8 32 Nordeste 39 Nordeste 0.2 -- -- 100
2020-06-29 23:00:00 11.6 29 Nordeste 40 Nordeste 0 -- -- 100
2020-06-29 22:00:00 11.6 35 Nordeste 46 Nordeste 0 -- -- 100
2020-06-29 21:00:00 11.5 40 Nordeste 50 Nordeste 0 -- -- 100
2020-06-29 20:00:00 11.9 39 Nordeste 51 Nordeste 0 -- -- 100
2020-06-29 19:00:00 12.5 39 Nordeste 49 Nordeste 0 -- -- 100
2020-06-29 18:00:00 13.1 35 Nordeste 44 Nordeste 0 -- -- 100
2020-06-29 17:00:00 13.1 35 Nordeste 51 Nordeste 0 -- -- 100
2020-06-29 16:00:00 13.3 37 Nordeste 49 Nordeste 0 -- -- 100
2020-06-29 15:00:00 13.6 37 Nordeste 53 Nordeste 0 -- -- 100
2020-06-29 14:00:00 13 42 Nordeste 57 Este 0 -- -- 100
2020-06-29 13:00:00 13.2 42 Nordeste 57 Nordeste 0 -- -- 100
2020-06-29 12:00:00 12.7 40 Nordeste 53 Nordeste 0 -- -- 100
2020-06-29 11:00:00 12.2 39 Nordeste 54 Nordeste 0 -- -- 100
2020-06-29 10:00:00 12.1 38 Nordeste 56 Nordeste 0 -- -- 100
2020-06-29 09:00:00 12.2 42 Nordeste 55 Este 0.2 -- -- 100
2020-06-29 08:00:00 11.1 41 Nordeste 57 Nordeste 0 -- -- 100
2020-06-29 07:00:00 11.9 40 Nordeste 54 Este 0.2 -- -- 100
2020-06-29 06:00:00 11.4 41 Nordeste 55 Nordeste 0 -- -- 100
2020-06-29 05:00:00 11.5 39 Nordeste 52 Nordeste 0 -- -- 100
2020-06-29 04:00:00 11.4 39 Nordeste 56 Nordeste 0 -- -- 100
2020-06-29 03:00:00 11.4 41 Nordeste 57 Nordeste 0.2 -- -- 100
2020-06-29 02:00:00 11.6 41 Nordeste 55 Nordeste 0 -- -- 100
2020-06-29 01:00:00 11.4 38 Nordeste 55 Nordeste 0 -- -- 100
2020-06-29 00:00:00 11.4 42 Nordeste 62 Nordeste 0 -- -- 100
2020-06-28 23:00:00 11.8 40 Nordeste 61 Nordeste 0 -- -- 100
2020-06-28 22:00:00 11.5 38 Nordeste 55 Nordeste 0 -- -- 100
2020-06-28 21:00:00 11.7 36 Nordeste 54 Nordeste 0 -- -- 100
2020-06-28 20:00:00 11.9 38 Nordeste 48 Nordeste 0 -- -- 100
2020-06-28 19:00:00 12.2 34 Nordeste 53 Nordeste 0 -- -- 99
2020-06-28 18:00:00 13 35 Nordeste 55 Nordeste 0 -- -- 93
2020-06-28 17:00:00 14.1 36 Nordeste 51 Nordeste 0 -- -- 85
2020-06-28 16:00:00 16.3 32 Nordeste 50 Nordeste 0 -- -- 69
2020-06-28 15:00:00 16.8 34 Nordeste 46 Nordeste 0 -- -- 57
2020-06-28 14:00:00 17 34 Nordeste 48 Nordeste 0 -- -- 58
2020-06-28 13:00:00 17.2 34 Nordeste 48 Nordeste 0 -- -- 55
2020-06-28 12:00:00 16.8 39 Nordeste 48 Nordeste 0 -- -- 56
2020-06-28 11:00:00 16.9 36 Nordeste 49 Nordeste 0 -- -- 51
2020-06-28 10:00:00 15.5 39 Nordeste 48 Nordeste 0 -- -- 59
2020-06-28 09:00:00 15.6 41 Nordeste 49 Nordeste 0 -- -- 53
2020-06-28 08:00:00 14.4 44 Nordeste 50 Nordeste 0 -- -- 56
2020-06-28 07:00:00 11.1 42 Nordeste 50 Nordeste 0 -- -- 86
2020-06-28 06:00:00 12.2 44 Nordeste 50 Nordeste 0 -- -- 78
2020-06-28 05:00:00 12.5 43 Nordeste 49 Nordeste 0 -- -- 77
2020-06-28 04:00:00 11.9 40 Nordeste 45 Nordeste 0 -- -- 77
2020-06-28 03:00:00 14.5 35 Nordeste 45 Nordeste 0 -- -- 56
2020-06-28 02:00:00 12.9 40 Nordeste 45 Nordeste 0 -- -- 66
2020-06-28 01:00:00 17.3 32 Nordeste 36 Nordeste 0 -- -- 29
2020-06-28 00:00:00 17.3 32 Nordeste 35 Nordeste 0 -- -- 27
2020-06-27 23:00:00 18 34 Nordeste 40 Nordeste 0 -- -- 23
2020-06-27 22:00:00 15.1 36 Nordeste 42 Nordeste 0 -- -- 59
2020-06-27 21:00:00 11.1 40 Nordeste 45 Nordeste 0 -- -- 91
2020-06-27 20:00:00 16.5 37 Nordeste 43 Nordeste 0 -- -- 33
2020-06-27 19:00:00 17 36 Nordeste 41 Nordeste 0 -- -- 34
2020-06-27 18:00:00 18.1 28 Nordeste 36 Nordeste 0 -- -- 32
2020-06-27 17:00:00 18.9 26 Nordeste 34 Nordeste 0 -- -- 32
2020-06-27 16:00:00 18.6 26 Nordeste 36 Nordeste 0 -- -- 32
2020-06-27 15:00:00 18.9 23 Nordeste 34 Nordeste 0 -- -- 37
2020-06-27 14:00:00 20.4 21 Nordeste 28 Nordeste 0 -- -- 33
2020-06-27 13:00:00 21.3 19 Nordeste 26 Nordeste 0 -- -- 28
2020-06-27 12:00:00 21.2 17 Nordeste 24 Nordeste 0 -- -- 26
2020-06-27 11:00:00 21.4 17 Nordeste 24 Nordeste 0 -- -- 22
2020-06-27 10:00:00 21.3 17 Nordeste 22 Nordeste 0 -- -- 22
2020-06-27 09:00:00 19.4 14 Nordeste 22 Nordeste 0 -- -- 23
2020-06-27 08:00:00 18.5 19 Nordeste 29 Nordeste 0 -- -- 23
2020-06-27 07:00:00 16.7 23 Nordeste 32 Nordeste 0 -- -- 25
2020-06-27 06:00:00 16.7 27 Nordeste 35 Nordeste 0 -- -- 29
2020-06-27 05:00:00 16.7 29 Nordeste 36 Nordeste 0 -- -- 27
2020-06-27 04:00:00 16.6 34 Nordeste 39 Nordeste 0 -- -- 30
2020-06-27 03:00:00 16 32 Nordeste 41 Nordeste 0 -- -- 34
2020-06-27 02:00:00 15.1 37 Nordeste 41 Nordeste 0 -- -- 43
2020-06-27 01:00:00 14.2 37 Nordeste 44 Nordeste 0 -- -- 49
2020-06-27 00:00:00 13.2 39 Nordeste 43 Nordeste 0 -- -- 57
2020-06-26 23:00:00 12.1 39 Nordeste 46 Nordeste 0 -- -- 69
2020-06-26 22:00:00 11.1 42 Nordeste 49 Nordeste 0 -- -- 78
2020-06-26 21:00:00 10.4 31 Nordeste 36 Nordeste 0 -- -- 100
2020-06-26 20:00:00 10.9 31 Nordeste 39 Este 0 -- -- 100
2020-06-26 19:00:00 14.3 26 Nordeste 33 Nordeste 0 -- -- 67
2020-06-26 18:00:00 11 26 Nordeste 42 Nordeste 0 -- -- 98
2020-06-26 17:00:00 11.5 32 Nordeste 41 Nordeste 0 -- -- 100
2020-06-26 16:00:00 11.8 31 Nordeste 43 Nordeste 0 -- -- 100
2020-06-26 15:00:00 11.7 36 Nordeste 44 Nordeste 0 -- -- 100
2020-06-26 14:00:00 12.3 33 Nordeste 41 Nordeste 0 -- -- 97
2020-06-26 13:00:00 11.8 30 Nordeste 39 Nordeste 0 -- -- 100
2020-06-26 12:00:00 11.5 33 Nordeste 40 Nordeste 0 -- -- 100
2020-06-26 11:00:00 11.2 31 Nordeste 38 Nordeste 0 -- -- 100
2020-06-26 10:00:00 10.3 32 Nordeste 40 Nordeste 0 -- -- 100
2020-06-26 09:00:00 10.5 33 Nordeste 44 Nordeste 0 -- -- 99
2020-06-26 08:00:00 8.9 39 Nordeste 47 Nordeste 0 -- -- 100
2020-06-26 07:00:00 10.4 38 Nordeste 49 Nordeste 0 -- -- 100
2020-06-26 06:00:00 10.2 39 Nordeste 45 Nordeste 0.2 -- -- 100
2020-06-26 05:00:00 11.2 35 Nordeste 49 Este 0 -- -- 100
2020-06-26 04:00:00 10.9 40 Nordeste 53 Nordeste 0 -- -- 100
2020-06-26 03:00:00 10 42 Nordeste 53 Nordeste 0.2 -- -- 100
2020-06-26 02:00:00 10 36 Nordeste 46 Nordeste 0 -- -- 100
2020-06-26 01:00:00 10 37 Nordeste 50 Nordeste 0 -- -- 100
2020-06-26 00:00:00 10.3 38 Nordeste 57 Nordeste 0 -- -- 100
2020-06-25 23:00:00 10.8 45 Nordeste 56 Nordeste 0 -- -- 100
2020-06-25 22:00:00 9.8 42 Nordeste 56 Nordeste 0 -- -- 95
2020-06-25 21:00:00 10.8 44 Nordeste 57 Nordeste 0 -- -- 72
2020-06-25 20:00:00 11.3 40 Nordeste 57 Nordeste 0 -- -- 90
2020-06-25 19:00:00 12.1 41 Nordeste 54 Nordeste 0 -- -- 85
2020-06-25 18:00:00 13 39 Nordeste 53 Nordeste 0 -- -- 79
2020-06-25 17:00:00 12.3 36 Nordeste 56 Nordeste 0 -- -- 97
2020-06-25 16:00:00 12.3 39 Nordeste 56 Nordeste 0 -- -- 98
2020-06-25 15:00:00 12.9 37 Nordeste 55 Nordeste 0 -- -- 95
2020-06-25 14:00:00 12.2 37 Nordeste 51 Este 0 -- -- 100
2020-06-25 13:00:00 11.6 40 Nordeste 52 Este 0 -- -- 100
2020-06-25 12:00:00 12 34 Nordeste 50 Nordeste 0 -- -- 100
2020-06-25 11:00:00 10.9 41 Nordeste 53 Nordeste 0 -- -- 100
2020-06-25 10:00:00 10.1 40 Nordeste 51 Nordeste 0 -- -- 100
2020-06-25 09:00:00 9.9 42 Nordeste 56 Nordeste 0 -- -- 100
2020-06-25 08:00:00 9.6 40 Nordeste 54 Nordeste 0 -- -- 100
2020-06-25 07:00:00 9.3 40 Nordeste 53 Nordeste 0 -- -- 100
2020-06-25 06:00:00 9.6 42 Nordeste 53 Nordeste 0.2 -- -- 100
2020-06-25 05:00:00 9.7 40 Nordeste 49 Nordeste 0 -- -- 100
2020-06-25 04:00:00 9.2 43 Nordeste 50 Nordeste 0 -- -- 100
2020-06-25 03:00:00 9.7 42 Nordeste 50 Nordeste 0 -- -- 100
2020-06-25 02:00:00 9.9 41 Nordeste 52 Nordeste 0 -- -- 100
2020-06-25 01:00:00 10.3 42 Nordeste 55 Nordeste 0 -- -- 100
2020-06-25 00:00:00 9.9 41 Nordeste 57 Nordeste 0 -- -- 100
2020-06-24 23:00:00 9.8 41 Nordeste 52 Nordeste 0 -- -- 100
2020-06-24 22:00:00 10.3 41 Nordeste 57 Nordeste 0 -- -- 100
2020-06-24 21:00:00 11.1 39 Nordeste 48 Nordeste 0 -- -- 100
2020-06-24 20:00:00 11.2 37 Nordeste 47 Nordeste 0 -- -- 100
2020-06-24 19:00:00 11.6 36 Nordeste 46 Nordeste 0 -- -- 100
2020-06-24 18:00:00 12.1 34 Nordeste 44 Nordeste 0 -- -- 100
2020-06-24 17:00:00 14.3 30 Nordeste 41 Nordeste 0 -- -- 80
2020-06-24 16:00:00 13 32 Nordeste 41 Nordeste 0 -- -- 95
2020-06-24 15:00:00 15.4 19 Nordeste 33 Nordeste 0 -- -- 77
2020-06-24 14:00:00 13.9 28 Nordeste 34 Nordeste 0 -- -- 86
2020-06-24 13:00:00 18.3 23 Nordeste 33 Nordeste 0 -- -- 51
2020-06-24 12:00:00 18.6 25 Nordeste 33 Nordeste 0 -- -- 42
2020-06-24 11:00:00 18.7 24 Nordeste 33 Nordeste 0 -- -- 32
2020-06-24 10:00:00 17.1 29 Nordeste 35 Nordeste 0 -- -- 39
2020-06-24 09:00:00 15.7 30 Nordeste 35 Nordeste 0 -- -- 44
2020-06-24 08:00:00 15 32 Nordeste 34 Nordeste 0 -- -- 60
2020-06-24 07:00:00 16.5 27 Nordeste 31 Nordeste 0 -- -- 24
2020-06-24 06:00:00 17 22 Nordeste 31 Nordeste 0 -- -- 21
2020-06-24 05:00:00 16.2 28 Nordeste 33 Nordeste 0 -- -- 28
2020-06-24 04:00:00 15.7 28 Nordeste 35 Nordeste 0 -- -- 31
2020-06-24 03:00:00 16.3 28 Nordeste 39 Nordeste 0 -- -- 25
2020-06-24 02:00:00 16.2 37 Nordeste 42 Nordeste 0 -- -- 27
2020-06-24 01:00:00 15.9 37 Nordeste 43 Nordeste 0 -- -- 35
2020-06-24 00:00:00 14.4 39 Nordeste 44 Nordeste 0 -- -- 56
2020-06-23 23:00:00 15.2 40 Nordeste 45 Nordeste 0 -- -- 36
2020-06-23 22:00:00 12.5 40 Nordeste 45 Nordeste 0 -- -- 71
2020-06-23 21:00:00 15.3 41 Nordeste 44 Nordeste 0 -- -- 44
2020-06-23 20:00:00 16.7 35 Nordeste 40 Nordeste 0 -- -- 36
2020-06-23 19:00:00 17.3 30 Nordeste 39 Nordeste 0 -- -- 38
2020-06-23 18:00:00 18.2 30 Nordeste 41 Nordeste 0 -- -- 35
2020-06-23 17:00:00 20.8 24 Nordeste 32 Nordeste 0 -- -- 33
2020-06-23 16:00:00 22.4 14 Nordeste 24 Nordeste 0 -- -- 40
2020-06-23 15:00:00 22.6 15 Nordeste 26 Este 0 -- -- 33
2020-06-23 14:00:00 22.3 15 Nordeste 26 Este 0 -- -- 40
2020-06-23 13:00:00 23.3 14 Este 29 Nordeste 0 -- -- 28
2020-06-23 12:00:00 22.5 14 Nordeste 24 Este 0 -- -- 27
2020-06-23 11:00:00 22.3 16 Nordeste 27 Este 0 -- -- 23
2020-06-23 10:00:00 21.3 14 Nordeste 21 Nordeste 0 -- -- 22
2020-06-23 09:00:00 20.2 18 Nordeste 23 Nordeste 0 -- -- 20
2020-06-23 08:00:00 19.2 18 Nordeste 21 Nordeste 0 -- -- 19
2020-06-23 07:00:00 18.3 20 Nordeste 25 Nordeste 0 -- -- 17
2020-06-23 06:00:00 18.7 23 Nordeste 26 Nordeste 0 -- -- 15
2020-06-23 05:00:00 19 22 Nordeste 27 Nordeste 0 -- -- 14
2020-06-23 04:00:00 19.5 27 Nordeste 32 Nordeste 0 -- -- 12
2020-06-23 03:00:00 17.5 30 Nordeste 35 Nordeste 0 -- -- 20
2020-06-23 02:00:00 17.6 31 Nordeste 36 Nordeste 0 -- -- 19
2020-06-23 01:00:00 18.1 32 Nordeste 36 Nordeste 0 -- -- 17
2020-06-23 00:00:00 18.2 32 Nordeste 36 Nordeste 0 -- -- 17
2020-06-22 23:00:00 19.4 31 Nordeste 37 Nordeste 0 -- -- 13
2020-06-22 22:00:00 18.6 26 Nordeste 29 Nordeste 0 -- -- 15
2020-06-22 21:00:00 19.2 25 Nordeste 28 Nordeste 0 -- -- 15
2020-06-22 20:00:00 20.3 17 Nordeste 20 Nordeste 0 -- -- 16
2020-06-22 19:00:00 21.2 15 Nordeste 21 Nordeste 0 -- -- 21
2020-06-22 18:00:00 22.7 11 Nordeste 17 Este 0 -- -- 19
2020-06-22 17:00:00 24.9 8 Nordeste 16 Nordeste 0 -- -- 22
2020-06-22 16:00:00 24.5 8 Norte 16 Nordeste 0 -- -- 22
2020-06-22 15:00:00 25.9 8 Nordeste 15 Nordeste 0 -- -- 20
2020-06-22 14:00:00 25.9 9 Nordeste 16 Nordeste 0 -- -- 31
2020-06-22 13:00:00 25 11 Nordeste 20 Este 0 -- -- 29
2020-06-22 12:00:00 23.3 11 Este 22 Nordeste 0 -- -- 27
2020-06-22 11:00:00 22.2 14 Nordeste 22 Nordeste 0 -- -- 30
2020-06-22 10:00:00 21.6 17 Este 22 Este 0 -- -- 27
2020-06-22 09:00:00 21.1 17 Nordeste 21 Nordeste 0 -- -- 21
2020-06-22 08:00:00 20.7 19 Este 22 Este 0 -- -- 15
2020-06-22 07:00:00 19.3 14 Nordeste 20 Nordeste 0 -- -- 14
2020-06-22 06:00:00 18.5 17 Nordeste 18 Nordeste 0 -- -- 17
2020-06-22 05:00:00 19.5 5 Norte 7 Noroeste 0 -- -- 14
2020-06-22 04:00:00 19.9 2 Noroeste 8 Norte 0 -- -- 13
2020-06-22 03:00:00 19.7 0 Calma 7 Sudoeste 0 -- -- 13
2020-06-22 02:00:00 20.3 4 Oeste 6 Oeste 0 -- -- 12
2020-06-22 01:00:00 20.1 5 Oeste 9 Noroeste 0 -- -- 12
2020-06-22 00:00:00 19.8 7 Noroeste 12 Noroeste 0 -- -- 17
2020-06-21 23:00:00 20.9 8 Noroeste 12 Noroeste 0 -- -- 13
2020-06-21 22:00:00 20.5 7 Oeste 9 Oeste 0 -- -- 18
2020-06-21 21:00:00 22.1 5 Noroeste 13 Noroeste 0 -- -- 21
2020-06-21 20:00:00 24 9 Noroeste 19 Noroeste 0 -- -- 20
2020-06-21 19:00:00 24.8 13 Noroeste 24 Oeste 0 -- -- 22
2020-06-21 18:00:00 26.1 12 Noroeste 19 Noroeste 0 -- -- 27
2020-06-21 17:00:00 24.9 8 Noroeste 18 Noroeste 0 -- -- 37
2020-06-21 16:00:00 26.5 8 Noroeste 41 Sudoeste 0 -- -- 44
2020-06-21 15:00:00 26.7 6 Sudoeste 16 Oeste 0 -- -- 25
2020-06-21 14:00:00 26.1 8 Sur 16 Sur 0 -- -- 22
2020-06-21 13:00:00 25.5 6 Oeste 19 Sudeste 0 -- -- 42
2020-06-21 12:00:00 25.3 6 Sudeste 15 Sudeste 0 -- -- 16
2020-06-21 11:00:00 24.9 4 Este 11 Sudoeste 0 -- -- 25
2020-06-21 10:00:00 23.4 4 Sur 10 Nordeste 0 -- -- 19
2020-06-21 09:00:00 19.6 10 Nordeste 21 Nordeste 0 -- -- 30
2020-06-21 08:00:00 19.4 17 Nordeste 26 Nordeste 0 -- -- 19
2020-06-21 07:00:00 18.3 18 Nordeste 24 Nordeste 0 -- -- 19
2020-06-21 06:00:00 18.1 19 Nordeste 24 Nordeste 0 -- -- 18
2020-06-21 05:00:00 17.4 20 Nordeste 32 Nordeste 0 -- -- 19
2020-06-21 04:00:00 16 28 Nordeste 38 Nordeste 0 -- -- 31
2020-06-21 03:00:00 17.6 35 Nordeste 39 Nordeste 0 -- -- 21
2020-06-21 02:00:00 17.3 34 Nordeste 41 Nordeste 0 -- -- 18
2020-06-21 01:00:00 16.2 35 Nordeste 39 Nordeste 0 -- -- 24
2020-06-21 00:00:00 16.1 28 Nordeste 32 Nordeste 0 -- -- 33
2020-06-20 23:00:00 15.3 25 Nordeste 35 Nordeste 0 -- -- 35
2020-06-20 22:00:00 15.2 29 Nordeste 35 Nordeste 0 -- -- 21
2020-06-20 21:00:00 16.2 23 Nordeste 30 Nordeste 0 -- -- 24
2020-06-20 20:00:00 16.3 24 Nordeste 30 Nordeste 0 -- -- 28
2020-06-20 19:00:00 18.4 21 Nordeste 25 Nordeste 0 -- -- 31
2020-06-20 18:00:00 18 19 Nordeste 26 Nordeste 0 -- -- 43
2020-06-20 17:00:00 16.3 20 Nordeste 29 Nordeste 0 -- -- 59
2020-06-20 16:00:00 17.7 17 Este 29 Nordeste 0 -- -- 65
2020-06-20 15:00:00 17.2 23 Este 32 Este 0 -- -- 69
2020-06-20 14:00:00 15.9 24 Este 44 Nordeste 0 -- -- 81
2020-06-20 13:00:00 13.9 30 Nordeste 44 Este 0 -- -- 99
2020-06-20 12:00:00 12.4 30 Nordeste 41 Nordeste 0 -- -- 100
2020-06-20 11:00:00 11.3 32 Nordeste 46 Este 0 -- -- 100
2020-06-20 10:00:00 11 36 Nordeste 47 Nordeste 0.2 -- -- 100
2020-06-20 09:00:00 10.7 35 Nordeste 44 Nordeste 0 -- -- 100
2020-06-20 08:00:00 10.4 36 Nordeste 46 Nordeste 0 -- -- 100
2020-06-20 07:00:00 10.5 30 Nordeste 41 Nordeste 0 -- -- 100
2020-06-20 06:00:00 10.5 27 Nordeste 39 Nordeste 0 -- -- 100
2020-06-20 05:00:00 10.4 33 Nordeste 46 Nordeste 0 -- -- 100
2020-06-20 04:00:00 10.1 32 Nordeste 43 Nordeste 0 -- -- 100
2020-06-20 03:00:00 10 31 Nordeste 40 Nordeste 0.2 -- -- 100
2020-06-20 02:00:00 10.6 31 Nordeste 45 Nordeste 0 -- -- 100
2020-06-20 01:00:00 10.1 37 Nordeste 51 Nordeste 0 -- -- 100
2020-06-20 00:00:00 10.3 35 Nordeste 54 Este 0 -- -- 100
2020-06-19 23:00:00 10 46 Nordeste 57 Nordeste 0 -- -- 100
2020-06-19 22:00:00 9.7 46 Nordeste 58 Nordeste 0 -- -- 100
2020-06-19 21:00:00 10.3 39 Nordeste 51 Este 0 -- -- 100
2020-06-19 20:00:00 10.7 38 Nordeste 60 Nordeste 0 -- -- 100
2020-06-19 19:00:00 11.1 44 Nordeste 57 Nordeste 0 -- -- 100
2020-06-19 18:00:00 12 40 Nordeste 56 Este 0 -- -- 100
2020-06-19 17:00:00 12.6 36 Nordeste 50 Nordeste 0 -- -- 100
2020-06-19 16:00:00 12.5 36 Nordeste 55 Nordeste 0 -- -- 100
2020-06-19 15:00:00 13.2 31 Este 49 Este 0 -- -- 96
2020-06-19 14:00:00 13 35 Nordeste 49 Nordeste 0 -- -- 92
2020-06-19 13:00:00 12.4 33 Nordeste 55 Nordeste 0 -- -- 100
2020-06-19 12:00:00 11.3 43 Nordeste 60 Nordeste 0 -- -- 100
2020-06-19 11:00:00 11.1 42 Nordeste 59 Este 0 -- -- 100
2020-06-19 10:00:00 10.5 45 Nordeste 59 Nordeste 0 -- -- 100
2020-06-19 09:00:00 10.3 40 Nordeste 53 Nordeste 0 -- -- 100
2020-06-19 08:00:00 10.7 39 Nordeste 52 Nordeste 0 -- -- 100
2020-06-19 07:00:00 10.9 35 Nordeste 51 Nordeste 0 -- -- 100
2020-06-19 06:00:00 11.1 36 Nordeste 48 Este 0.2 -- -- 100
2020-06-19 05:00:00 11 32 Nordeste 45 Este 0 -- -- 100
2020-06-19 04:00:00 10.7 31 Nordeste 48 Nordeste 0 -- -- 100
2020-06-19 03:00:00 9.4 37 Nordeste 42 Este 0 -- -- 100
2020-06-19 02:00:00 9.4 33 Este 53 Nordeste 0 -- -- 100
2020-06-19 01:00:00 9.6 35 Nordeste 58 Nordeste 0 -- -- 100
2020-06-19 00:00:00 10.3 42 Nordeste 57 Nordeste 0 -- -- 100
2020-06-18 23:00:00 10.6 43 Nordeste 54 Nordeste 0 -- -- 100
2020-06-18 22:00:00 10.5 39 Nordeste 56 Nordeste 0 -- -- 100
2020-06-18 21:00:00 10.3 33 Nordeste 56 Nordeste 0 -- -- 100
2020-06-18 20:00:00 10.9 38 Nordeste 54 Nordeste 0 -- -- 100
2020-06-18 19:00:00 11.3 28 Nordeste 52 Nordeste 0 -- -- 100
2020-06-18 18:00:00 11.9 27 Nordeste 52 Nordeste 0 -- -- 100
2020-06-18 17:00:00 12.9 21 Nordeste 44 Nordeste 0 -- -- 95
2020-06-18 16:00:00 14.1 19 Nordeste 38 Nordeste 0 -- -- 84
2020-06-18 15:00:00 14.7 19 Nordeste 46 Nordeste 0 -- -- 84
2020-06-18 14:00:00 13.8 27 Nordeste 50 Nordeste 0 -- -- 87
2020-06-18 13:00:00 12.4 31 Nordeste 53 Nordeste 0 -- -- 100
2020-06-18 12:00:00 11.2 37 Nordeste 55 Nordeste 0 -- -- 100
2020-06-18 11:00:00 10.5 35 Nordeste 54 Nordeste 0 -- -- 100
2020-06-18 10:00:00 10.5 36 Nordeste 59 Este 0 -- -- 100
2020-06-18 09:00:00 9.9 36 Nordeste 57 Nordeste 0 -- -- 100
2020-06-18 08:00:00 9.8 32 Nordeste 51 Norte 0 -- -- 100
2020-06-18 07:00:00 10 30 Nordeste 55 Norte 0 -- -- 100
2020-06-18 06:00:00 9.8 33 Norte 54 Norte 0 -- -- 100
2020-06-18 05:00:00 10.5 25 Norte 45 Norte 0 -- -- 100
2020-06-18 04:00:00 10.5 26 Norte 50 Norte 0 -- -- 100
2020-06-18 03:00:00 11.1 30 Norte 49 Norte 0 -- -- 100
2020-06-18 02:00:00 10.4 40 Norte 51 Noroeste 0 -- -- 100
2020-06-18 01:00:00 10.9 32 Norte 54 Norte 0 -- -- 100
2020-06-18 00:00:00 11.2 33 Norte 50 Norte 0 -- -- 100
2020-06-17 23:00:00 11 39 Noroeste 57 Noroeste 0 -- -- 98
2020-06-17 22:00:00 11.4 34 Noroeste 46 Noroeste 0 -- -- 98
2020-06-17 21:00:00 12.7 34 Noroeste 45 Noroeste 0 -- -- 87
2020-06-17 20:00:00 15.6 23 Noroeste 36 Oeste 0 -- -- 70
2020-06-17 19:00:00 18.3 24 Oeste 40 Oeste 0 -- -- 62
2020-06-17 18:00:00 19.7 22 Oeste 43 Noroeste 0 -- -- 54
2020-06-17 17:00:00 20.6 20 Oeste 42 Oeste 0 -- -- 68
2020-06-17 16:00:00 19.9 28 Oeste 60 Oeste 0 -- -- 62
2020-06-17 15:00:00 20.4 39 Oeste 64 Oeste 0 -- -- 48
2020-06-17 14:00:00 19.5 43 Oeste 60 Oeste 0 -- -- 56
2020-06-17 13:00:00 19 41 Oeste 69 Oeste 0 -- -- 49
2020-06-17 12:00:00 19.3 53 Oeste 73 Oeste 0 -- -- 48
2020-06-17 11:00:00 18.5 53 Noroeste 73 Oeste 0 -- -- 61
2020-06-17 10:00:00 17.9 50 Oeste 69 Noroeste 0 -- -- 68
2020-06-17 09:00:00 17.2 52 Noroeste 66 Oeste 0 -- -- 71
2020-06-17 08:00:00 16.3 38 Oeste 54 Oeste 0 -- -- 73
2020-06-17 07:00:00 17.3 41 Oeste 58 Oeste 0 -- -- 68
2020-06-17 06:00:00 16.4 53 Oeste 62 Oeste 0.2 -- -- 74
2020-06-17 05:00:00 15.8 43 Oeste 64 Oeste 0 -- -- 78
2020-06-17 04:00:00 14.4 48 Noroeste 67 Oeste 0.4 -- -- 88
2020-06-17 03:00:00 17.7 44 Oeste 62 Noroeste 0 -- -- 64
2020-06-17 02:00:00 18.1 44 Noroeste 70 Noroeste 0 -- -- 62
2020-06-17 01:00:00 17.3 56 Oeste 77 Noroeste 0 -- -- 68
2020-06-17 00:00:00 15.6 53 Noroeste 75 Noroeste 0 -- -- 78
2020-06-16 23:00:00 16.3 53 Noroeste 91 Noroeste 0 -- -- 73
2020-06-16 22:00:00 16.2 59 Noroeste 76 Noroeste 0 -- -- 75
2020-06-16 21:00:00 16.9 53 Noroeste 64 Noroeste 0 -- -- 69
2020-06-16 20:00:00 16.3 48 Norte 60 Norte 0 -- -- 72
2020-06-16 19:00:00 14.9 41 Norte 55 Norte 0 -- -- 83
2020-06-16 18:00:00 16.4 44 Norte 73 Norte 0 -- -- 70
2020-06-16 17:00:00 16.8 49 Norte 69 Nordeste 0 -- -- 70
2020-06-16 16:00:00 18.1 43 Norte 63 Norte 0 -- -- 66
2020-06-16 15:00:00 19.5 36 Norte 54 Norte 0 -- -- 58
2020-06-16 14:00:00 20.6 28 Norte 66 Norte 0 -- -- 55
2020-06-16 13:00:00 20.4 36 Norte 60 Norte 0 -- -- 57
2020-06-16 12:00:00 20.8 41 Noroeste 69 Norte 0 -- -- 53
2020-06-16 11:00:00 19.9 33 Norte 55 Noroeste 0 -- -- 55
2020-06-16 10:00:00 19 31 Norte 69 Noroeste 0 -- -- 59
2020-06-16 09:00:00 18.8 42 Noroeste 64 Noroeste 0 -- -- 58
2020-06-16 08:00:00 18.5 35 Norte 63 Noroeste 0 -- -- 60
2020-06-16 07:00:00 17.6 38 Norte 52 Noroeste 0 -- -- 62
2020-06-16 06:00:00 17.3 35 Norte 59 Noroeste 0 -- -- 64
2020-06-16 05:00:00 16.2 31 Norte 52 Noroeste 0 -- -- 72
2020-06-16 04:00:00 15.8 37 Norte 44 Norte 0 -- -- 75
2020-06-16 03:00:00 15.4 30 Norte 58 Norte 0 -- -- 79
2020-06-16 02:00:00 16.8 38 Norte 60 Noroeste 0 -- -- 68
2020-06-16 01:00:00 15.6 38 Norte 52 Noroeste 0 -- -- 73
2020-06-16 00:00:00 16.3 36 Norte 54 Norte 0 -- -- 63
2020-06-15 23:00:00 16.8 32 Noroeste 50 Noroeste 0 -- -- 64
2020-06-15 22:00:00 16.7 36 Norte 57 Norte 0 -- -- 65
2020-06-15 21:00:00 17.4 43 Noroeste 61 Noroeste 0 -- -- 58
2020-06-15 20:00:00 18.1 41 Noroeste 65 Noroeste 0 -- -- 57
2020-06-15 19:00:00 18.7 41 Noroeste 59 Noroeste 0 -- -- 57
2020-06-15 18:00:00 19 27 Noroeste 48 Noroeste 0 -- -- 60
2020-06-15 17:00:00 19.2 35 Norte 46 Norte 0 -- -- 60
2020-06-15 16:00:00 19.7 28 Norte 52 Noroeste 0 -- -- 63
2020-06-15 15:00:00 20 33 Noroeste 69 Noroeste 0 -- -- 62
2020-06-15 14:00:00 19.1 46 Noroeste 74 Noroeste 0 -- -- 66
2020-06-15 13:00:00 17.2 52 Noroeste 77 Noroeste 0 -- -- 80
2020-06-15 12:00:00 17 51 Noroeste 69 Noroeste 0 -- -- 78
2020-06-15 11:00:00 15.8 44 Norte 69 Norte 0 -- -- 84
2020-06-15 10:00:00 15.3 54 Norte 66 Norte 0 -- -- 88
2020-06-15 09:00:00 14.9 44 Noroeste 65 Noroeste 0 -- -- 89
2020-06-15 08:00:00 15 59 Noroeste 72 Noroeste 0 -- -- 86
2020-06-15 07:00:00 15.9 60 Oeste 85 Noroeste 0 -- -- 82
2020-06-15 06:00:00 14.8 46 Oeste 73 Oeste 0.8 -- -- 90
2020-06-15 05:00:00 14.5 43 Oeste 69 Oeste 1 -- -- 92
2020-06-15 04:00:00 15.5 41 Oeste 60 Oeste 0.8 -- -- 84
2020-06-15 03:00:00 17.2 23 Sudoeste 31 Sudoeste 0 -- -- 72
2020-06-15 02:00:00 17.7 13 Oeste 41 Noroeste 0 -- -- 66
2020-06-15 01:00:00 17.5 29 Noroeste 36 Noroeste 0 -- -- 64
2020-06-15 00:00:00 18.2 20 Noroeste 40 Noroeste 0 -- -- 60
2020-06-14 23:00:00 18.5 29 Noroeste 39 Noroeste 0 -- -- 55
2020-06-14 22:00:00 19.5 32 Noroeste 47 Noroeste 0 -- -- 50
2020-06-14 21:00:00 19 39 Noroeste 53 Noroeste 0 -- -- 52
2020-06-14 20:00:00 18.8 39 Noroeste 55 Noroeste 0 -- -- 50
2020-06-14 19:00:00 19.2 35 Noroeste 50 Noroeste 0 -- -- 47
2020-06-14 18:00:00 19.8 26 Oeste 38 Noroeste 0 -- -- 34
2020-06-14 17:00:00 22.8 25 Oeste 35 Oeste 0 -- -- 29
2020-06-14 16:00:00 19.7 8 Oeste 32 Sudoeste 0 -- -- 37
2020-06-14 15:00:00 18 13 Sur 24 Sudeste 0 -- -- 33
2020-06-14 14:00:00 19 16 Sudeste 24 Este 0 -- -- 45
2020-06-14 13:00:00 19.1 12 Sudeste 25 Sudeste 0 -- -- 54
2020-06-14 12:00:00 20.3 12 Sudeste 17 Sudeste 0 -- -- 49
2020-06-14 11:00:00 20.8 7 Sudeste 13 Sudeste 0 -- -- 28
2020-06-14 10:00:00 19.1 8 Este 14 Este 0 -- -- 40
2020-06-14 09:00:00 17.7 2 Norte 11 Sudoeste 0 -- -- 17
2020-06-14 08:00:00 15.5 9 Sudoeste 12 Sudoeste 0 -- -- 15
2020-06-14 07:00:00 15 11 Sur 24 Sur 0 -- -- 17
2020-06-14 06:00:00 15.8 11 Noroeste 33 Noroeste 0 -- -- 18
2020-06-14 05:00:00 16.3 22 Noroeste 25 Noroeste 0 -- -- 13
2020-06-14 04:00:00 16.1 17 Noroeste 20 Noroeste 0 -- -- 13
2020-06-14 03:00:00 15.5 13 Noroeste 18 Oeste 0 -- -- 14
2020-06-14 02:00:00 15.9 15 Noroeste 26 Noroeste 0 -- -- 17
2020-06-14 01:00:00 14.9 17 Noroeste 23 Norte 0 -- -- 18
2020-06-14 00:00:00 13.5 14 Noroeste 20 Noroeste 0 -- -- 26
2020-06-13 23:00:00 12.9 19 Noroeste 22 Noroeste 0 -- -- 28
2020-06-13 22:00:00 13.6 18 Noroeste 22 Noroeste 0 -- -- 23
2020-06-13 21:00:00 15.2 14 Oeste 18 Oeste 0 -- -- 61
2020-06-13 20:00:00 18 13 Oeste 19 Oeste 0 -- -- 61
2020-06-13 19:00:00 16.8 11 Oeste 23 Oeste 0 -- -- 70
2020-06-13 18:00:00 19.6 9 Noroeste 19 Noroeste 0 -- -- 66
2020-06-13 17:00:00 20 4 Noroeste 18 Noroeste 0 -- -- 65
2020-06-13 16:00:00 17.3 5 Este 12 Este 0 -- -- 73
2020-06-13 15:00:00 17.4 4 Noroeste 12 Oeste 0 -- -- 73
2020-06-13 14:00:00 16 8 Este 16 Oeste 0 -- -- 80
2020-06-13 13:00:00 17 4 Oeste 18 Este 0 -- -- 75
2020-06-13 12:00:00 17.3 6 Sur 15 Sudoeste 0 -- -- 71
2020-06-13 11:00:00 16 5 Sudoeste 24 Este 0 -- -- 75
2020-06-13 10:00:00 14.4 13 Este 20 Este 0 -- -- 46
2020-06-13 09:00:00 10.3 12 Este 17 Sur 0 -- -- 100
2020-06-13 08:00:00 8.9 6 Sur 26 Sudeste 0 -- -- 100
2020-06-13 07:00:00 9 15 Sudeste 25 Sudeste 0 -- -- 100
2020-06-13 06:00:00 8.6 17 Este 23 Sudeste 0 -- -- 100
2020-06-13 05:00:00 10.1 10 Sur 18 Sur 0 -- -- 81
2020-06-13 04:00:00 11.4 15 Sur 18 Sudoeste 0 -- -- 75
2020-06-13 03:00:00 12 8 Oeste 15 Oeste 0 -- -- 42
2020-06-13 02:00:00 12.7 11 Oeste 15 Sur 0 -- -- 26
2020-06-13 01:00:00 12 13 Sur 17 Sudoeste 0 -- -- 63
2020-06-13 00:00:00 14.5 14 Sudoeste 17 Sudoeste 0 -- -- 18
2020-06-12 23:00:00 15.3 6 Sur 11 Este 0 -- -- 15
2020-06-12 22:00:00 14.4 9 Sudeste 15 Este 0 -- -- 17
2020-06-12 21:00:00 13.2 12 Este 19 Este 0 -- -- 32
2020-06-12 20:00:00 13.2 15 Este 19 Este 0 -- -- 35
2020-06-12 19:00:00 13.6 6 Sudeste 22 Este 0 -- -- 84
2020-06-12 18:00:00 14.5 8 Nordeste 17 Este 0 -- -- 82
2020-06-12 17:00:00 16.9 9 Oeste 24 Oeste 0 -- -- 76
2020-06-12 16:00:00 14.6 4 Nordeste 15 Este 0 -- -- 80
2020-06-12 15:00:00 15.4 6 Este 17 Oeste 0 -- -- 77
2020-06-12 14:00:00 14.7 7 Este 22 Este 0 -- -- 75
2020-06-12 13:00:00 14 9 Este 22 Este 0 -- -- 76
2020-06-12 12:00:00 11.8 16 Nordeste 26 Este 0 -- -- 85
2020-06-12 11:00:00 11.3 12 Nordeste 31 Este 0 -- -- 89
2020-06-12 10:00:00 9.2 20 Nordeste 28 Nordeste 0 -- -- 100
2020-06-12 09:00:00 9.3 9 Nordeste 37 Nordeste 0 -- -- 93
2020-06-12 08:00:00 7.7 29 Nordeste 42 Nordeste 0 -- -- 98
2020-06-12 07:00:00 7.2 31 Nordeste 37 Nordeste 0 -- -- 100
2020-06-12 06:00:00 8.1 21 Norte 32 Norte 0 -- -- 96
2020-06-12 05:00:00 8.7 18 Noroeste 27 Noroeste 0 -- -- 87
2020-06-12 04:00:00 8 14 Norte 28 Norte 0 -- -- 100
2020-06-12 03:00:00 8.1 16 Norte 24 Norte 0 -- -- 100
2020-06-12 02:00:00 8.7 19 Norte 25 Norte 0 -- -- 100
2020-06-12 01:00:00 9 22 Norte 29 Norte 0 -- -- 100
2020-06-12 00:00:00 9.3 24 Noroeste 31 Noroeste 0 -- -- 100